Main page
METAR-TAF:

METAR-TAF

Airports :

Austin–Bergstrom International Airport

Austin, Texas, United States

latitude: 30-11-40N, longitude: 097-40-12W, elevation: 541 ft

Current weather observation

The report was made 39 minutes ago, at 03:53 UTC
Wind 3 mph from the South/Southeast
Temperature 41°F
Humidity 65%
Pressure 30.25 in. Hg
Visibility: 10 miles
Scattered clouds at a height of 25000 ft

METAR: KAUS 210353Z 15003KT 10SM SCT250 05/M01 A3025 RMK AO2 SLP249 T00501011

Time: 22:32 (04:32 UTC)

Forecast

The report was made 5 hours and 4 minutes ago, at 23:28 UTC
Forecast valid from 21 at 00 UTC to 22 at 06 UTC
Wind 6 mph from the South/Southeast
Visibility: 6 miles
Scattered clouds at a height of 25000 ft
From 21 at 1700 UTC
Wind 15 mph from the South with gusts up to 26 mph
Visibility: 6 miles
Few clouds at a height of 25000 ft

TAF: KAUS 202328Z 2100/2206 15005KT P6SM SCT250 FM211700 17013G23KT P6SM FEW250

Weather observations and forecasts of more than 4000 airports (METAR and TAF reports).

The available stations are represented by yellow and red dots on the map.

Hover mouse over dot to see the name of the station.

Then click to see weather observations and forecasts.

To change the map : click on the green buttons with a black cross to zoom in, on the green button with a dash to zoom out, or on the green arrows for adjacent maps.


METAR-TAF: